Mizpah, Minnesota
Current Conditions -  °F | °C
As of 5:11 AM on Friday 28 Nov 2014 (Local Time) from KVWU Reporting Station
Light Snow Light Snow  
Wind Chill:   Ceiling: 5500
Heat Index:   Visibility: 7mi
Dew Point:   Wind: 0mph
Humidity: 79%   Direction: NA
Pressure: 30.03"   Gusts: NA
Location:  47.92°N, 94.2°W
Report Text: KVWU 281111Z AUTO 00000KT 7SM -SN OVC055 M13/M16 A3003 RMK AO2
Loading
Personal Weather Stations






























Interactive Weather Map New forecast layout! Learn more

10-Day Weather Forecast

Advertisements
Track Severe Weather on mobile